Arctic Fury — WDE9335 — position and weather

sailwx.info

Track history (hours):
 
Tides and Currents Weather Stations Pressure Air Temp Water Temp Dewpoint Dewpoint Depression Visibility Wind Speed Wind Dir Waves Ship Positions

Arctic Fury

Owner: Fury Group Inc, Seattle, WA. More information available from US FCC via Universal Licensing System and Coast Guard Vessel Documentation Center.

Last reported at 2016-Jun-30 00:28 UTC. Time now 2016-Jun-30 16:00 UTC.
Position N 42°54' W 125°11'.

Length 43 m; draft 5 m.

Type: Fishing. MMSI: 366468000.

Date/timePositionNaut miles runAvg speedWind from/ knotsBaromVisibWave heightAir tempDewpointWater temp
2016-Jun-30 00:28N 42°54' W 125°11'79 3.4
2016-Jun-29 01:04N 44°13' W 125°11'5 9.2
2016-Jun-29 00:33N 44°18' W 125°12'9 8.9
2016-Jun-28 23:32N 44°27' W 125°12'9 8.9
2016-Jun-28 22:33N 44°36' W 125°13'12 8.8
2016-Jun-28 21:15N 44°47' W 125°14'7 9.1
2016-Jun-28 20:29N 44°54' W 125°15'10 8.8
2016-Jun-28 19:23N 45°04' W 125°16'10 8.7
2016-Jun-28 18:11N 45°14' W 125°16'9 8.9
2016-Jun-28 17:11N 45°23' W 125°17'6 8.7
2016-Jun-28 16:30N 45°29' W 125°18'9 8.6
2016-Jun-28 15:28N 45°38' W 125°19'8 8.8
2016-Jun-28 14:31N 45°46' W 125°19'9 9.2
2016-Jun-28 13:33N 45°55' W 125°20'12 9.2
2016-Jun-28 12:17N 46°07' W 125°21'7 9.0
2016-Jun-28 11:32N 46°13' W 125°22'10 9.2
2016-Jun-28 10:28N 46°23' W 125°23'10 9.4
2016-Jun-28 09:22N 46°33' W 125°24'10 9.3
2016-Jun-28 08:14N 46°44' W 125°24'16 9.2
2016-Jun-28 06:33N 46°59' W 125°26'27 8.8
2016-Jun-28 03:25N 47°27' W 125°28'8 8.6
2016-Jun-28 02:33N 47°34' W 125°29'9 9.2
2016-Jun-28 01:32N 47°43' W 125°30'9 9.3
2016-Jun-28 00:32N 47°53' W 125°31'10 8.8
2016-Jun-27 23:22N 48°00' W 125°21'19 6.1
2016-Jun-27 20:14N 48°07' W 125°48'7 7.9
2016-Jun-27 19:21N 48°00' W 125°43'7 7.7
2016-Jun-27 18:27N 47°54' W 125°38'1011.2
2016-Jun-27 17:33N 47°52' W 125°23'8 8.1
2016-Jun-27 16:33N 47°50' W 125°11'4 3.9
2016-Jun-27 15:33N 47°47' W 125°08'8 7.7
2016-Jun-27 14:30N 47°39' W 125°07'7 6.9
2016-Jun-27 13:33N 47°33' W 125°04'4 3.4
2016-Jun-27 12:24N 47°37' W 125°07'2 2.3
2016-Jun-27 11:33N 47°37' W 125°04'1 0.8
2016-Jun-27 10:15N 47°37' W 125°05'1 0.6
2016-Jun-27 09:19N 47°37' W 125°06'0 0.5
2016-Jun-27 08:33N 47°37' W 125°07'1 0.6
2016-Jun-27 07:30N 47°38' W 125°07'2 2.2
2016-Jun-27 06:34N 47°36' W 125°08'3 2.7
2016-Jun-27 05:33N 47°33' W 125°07'2 2.1
2016-Jun-27 04:33N 47°33' W 125°04'5 4.7
2016-Jun-27 03:33N 47°29' W 124°60'7 7.3
2016-Jun-27 02:33N 47°23' W 124°53'7 7.4
2016-Jun-27 01:33N 47°16' W 124°55'8 7.6
2016-Jun-27 00:33N 47°09' W 125°01'7 6.6
2016-Jun-26 23:34N 47°03' W 124°58'7 6.9
2016-Jun-26 22:33N 46°57' W 125°03'8 8.1
2016-Jun-26 21:33N 46°50' W 124°58'8 7.6
2016-Jun-26 20:33N 46°44' W 124°52'8 7.9
2016-Jun-26 19:33N 46°38' W 124°43'7 6.9
2016-Jun-26 18:33N 46°32' W 124°39'2 2.1
2016-Jun-26 17:33N 46°32' W 124°42'5 4.9
2016-Jun-26 16:34N 46°36' W 124°40'1 1.0
2016-Jun-26 15:33N 46°37' W 124°41'8 7.6
2016-Jun-26 14:33N 46°42' W 124°50'8 7.8
2016-Jun-26 13:33N 46°49' W 124°55'7 6.0
2016-Jun-26 12:28N 46°55' W 124°60'1 1.0
2016-Jun-26 11:32N 46°55' W 125°00'2 1.5
2016-Jun-26 10:25N 46°57' W 125°00'1 1.4
2016-Jun-26 09:30N 46°58' W 125°01'3 2.1
2016-Jun-26 08:11N 47°01' W 124°58'4 6.6
2016-Jun-26 07:32N 47°05' W 124°56'3 3.3
2016-Jun-26 06:33N 47°08' W 124°55'5 4.8
2016-Jun-26 05:24N 47°14' W 124°54'5 5.0
2016-Jun-26 04:26N 47°18' W 124°53'6 4.7
2016-Jun-26 03:14N 47°24' W 124°51'2 1.9
2016-Jun-26 02:20N 47°25' W 124°49'10 3.3
2016-Jun-25 23:25N 47°17' W 124°58'4 4.3
2016-Jun-25 22:33N 47°14' W 124°57'9 8.7
2016-Jun-25 21:33N 47°20' W 124°48'  
2016-Jun-23 01:03N 47°12' W 124°38'4 8.4
2016-Jun-23 00:33N 47°09' W 124°34'9 8.7
2016-Jun-22 23:33N 47°02' W 124°26'5 4.7
2016-Jun-22 22:33N 46°60' W 124°20'5 4.7
2016-Jun-22 21:33N 46°56' W 124°16'5 5.3
2016-Jun-22 20:32N 46°55' W 124°08'1 0.9
2016-Jun-22 19:18N 46°54' W 124°06'0 0.0
2016-Jun-22 18:33N 46°54' W 124°06'0 0.0
2016-Jun-22 17:33N 46°54' W 124°06'0 0.0
2016-Jun-22 16:29N 46°54' W 124°06'0 0.0
2016-Jun-22 15:29N 46°54' W 124°06'0 0.0
2016-Jun-22 13:23N 46°54' W 124°06'0 0.0
2016-Jun-22 12:26N 46°54' W 124°06'0 0.0
2016-Jun-22 11:31N 46°54' W 124°06'0 0.0
2016-Jun-22 10:33N 46°54' W 124°06'0 0.0
2016-Jun-22 09:32N 46°54' W 124°06'0 0.0
2016-Jun-22 08:33N 46°54' W 124°06'0 0.0
2016-Jun-22 07:33N 46°54' W 124°06'0 0.0
2016-Jun-22 06:28N 46°54' W 124°06'0 0.0
2016-Jun-22 05:23N 46°54' W 124°06'0 0.0
2016-Jun-22 04:20N 46°54' W 124°06'0 0.0
2016-Jun-22 03:25N 46°54' W 124°06'0 0.0
2016-Jun-22 02:32N 46°54' W 124°06'0 0.0
2016-Jun-22 01:24N 46°54' W 124°06'0 0.0
2016-Jun-22 00:31N 46°54' W 124°06'0 0.0
2016-Jun-21 22:31N 46°54' W 124°06'0 0.0
2016-Jun-21 21:24N 46°54' W 124°06'0 0.0
2016-Jun-21 20:14N 46°54' W 124°06'0 0.0
2016-Jun-21 19:04N 46°54' W 124°06'0 0.0
2016-Jun-21 18:33N 46°54' W 124°06'0 0.0
2016-Jun-21 17:27N 46°54' W 124°06'0 0.0
2016-Jun-21 15:07N 46°54' W 124°06'0 0.0
2016-Jun-21 14:33N 46°54' W 124°06'0 0.0
2016-Jun-21 13:13N 46°54' W 124°06'0 0.0
2016-Jun-21 12:32N 46°54' W 124°06'0 0.0
2016-Jun-21 11:22N 46°54' W 124°06'0 0.0
2016-Jun-21 10:28N 46°54' W 124°06'0 0.0
2016-Jun-21 09:27N 46°54' W 124°06'0 0.0
2016-Jun-21 08:31N 46°54' W 124°06'0 0.0
2016-Jun-21 07:19N 46°54' W 124°06'0 0.0
2016-Jun-21 04:13N 46°54' W 124°06'0 0.0
2016-Jun-21 03:33N 46°54' W 124°06'0 0.0
2016-Jun-21 02:18N 46°54' W 124°06'0 0.0
2016-Jun-21 01:33N 46°54' W 124°06'0 0.0
2016-Jun-21 00:31N 46°54' W 124°06'0 0.0
2016-Jun-20 23:32N 46°54' W 124°06'0 0.0
2016-Jun-20 22:31N 46°54' W 124°06'0 0.0
2016-Jun-20 21:33N 46°54' W 124°06'0 0.0
2016-Jun-20 20:31N 46°54' W 124°06'0 0.0
2016-Jun-20 19:33N 46°54' W 124°06'0 0.0
2016-Jun-20 17:31N 46°54' W 124°06'0 0.0
2016-Jun-20 16:17N 46°54' W 124°06'0 0.0
2016-Jun-20 15:31N 46°54' W 124°06'0 0.0
2016-Jun-20 14:17N 46°54' W 124°06'0 0.0
2016-Jun-20 13:33N 46°54' W 124°06'0 0.0
2016-Jun-20 12:33N 46°54' W 124°06'0 0.0
2016-Jun-20 11:33N 46°54' W 124°06'0 0.0
2016-Jun-20 10:30N 46°54' W 124°06'0 0.0
2016-Jun-20 09:32N 46°54' W 124°06'0 0.0
2016-Jun-20 08:31N 46°54' W 124°06'0 0.0
2016-Jun-20 07:33N 46°54' W 124°06'0 0.0
2016-Jun-20 06:33N 46°54' W 124°06'0 0.0
2016-Jun-20 05:33N 46°54' W 124°06'0 0.0
2016-Jun-20 04:33N 46°54' W 124°06'0 0.0
2016-Jun-20 03:33N 46°54' W 124°06'0 0.0
2016-Jun-20 02:14N 46°54' W 124°06'0 0.0
2016-Jun-20 01:31N 46°54' W 124°06'0 0.0
2016-Jun-20 00:31N 46°54' W 124°06'  
Track history (hours):
 
Tides and Currents Weather Stations Pressure Air Temp Water Temp Dewpoint Dewpoint Depression Visibility Wind Speed Wind Dir Waves Ship Positions

Arctic Fury

Owner: Fury Group Inc, Seattle, WA. More information available from US FCC via Universal Licensing System and Coast Guard Vessel Documentation Center.

Last reported at 2016-Jun-30 00:28 UTC. Time now 2016-Jun-30 16:00 UTC.
Position N 42°54' W 125°11'.

Length 43 m; draft 5 m.

Type: Fishing. MMSI: 366468000.

Date/timePositionNaut miles runAvg speedWind from/ knotsBaromVisibWave heightAir tempDewpointWater temp
2016-Jun-30 00:28N 42°54' W 125°11'79 3.4
2016-Jun-29 01:04N 44°13' W 125°11'5 9.2
2016-Jun-29 00:33N 44°18' W 125°12'9 8.9
2016-Jun-28 23:32N 44°27' W 125°12'9 8.9
2016-Jun-28 22:33N 44°36' W 125°13'12 8.8
2016-Jun-28 21:15N 44°47' W 125°14'7 9.1
2016-Jun-28 20:29N 44°54' W 125°15'10 8.8
2016-Jun-28 19:23N 45°04' W 125°16'10 8.7
2016-Jun-28 18:11N 45°14' W 125°16'9 8.9
2016-Jun-28 17:11N 45°23' W 125°17'6 8.7
2016-Jun-28 16:30N 45°29' W 125°18'9 8.6
2016-Jun-28 15:28N 45°38' W 125°19'8 8.8
2016-Jun-28 14:31N 45°46' W 125°19'9 9.2
2016-Jun-28 13:33N 45°55' W 125°20'12 9.2
2016-Jun-28 12:17N 46°07' W 125°21'7 9.0
2016-Jun-28 11:32N 46°13' W 125°22'10 9.2
2016-Jun-28 10:28N 46°23' W 125°23'10 9.4
2016-Jun-28 09:22N 46°33' W 125°24'10 9.3
2016-Jun-28 08:14N 46°44' W 125°24'16 9.2
2016-Jun-28 06:33N 46°59' W 125°26'27 8.8
2016-Jun-28 03:25N 47°27' W 125°28'8 8.6
2016-Jun-28 02:33N 47°34' W 125°29'9 9.2
2016-Jun-28 01:32N 47°43' W 125°30'9 9.3
2016-Jun-28 00:32N 47°53' W 125°31'10 8.8
2016-Jun-27 23:22N 48°00' W 125°21'19 6.1
2016-Jun-27 20:14N 48°07' W 125°48'7 7.9
2016-Jun-27 19:21N 48°00' W 125°43'7 7.7
2016-Jun-27 18:27N 47°54' W 125°38'1011.2
2016-Jun-27 17:33N 47°52' W 125°23'8 8.1
2016-Jun-27 16:33N 47°50' W 125°11'4 3.9
2016-Jun-27 15:33N 47°47' W 125°08'8 7.7
2016-Jun-27 14:30N 47°39' W 125°07'7 6.9
2016-Jun-27 13:33N 47°33' W 125°04'4 3.4
2016-Jun-27 12:24N 47°37' W 125°07'2 2.3
2016-Jun-27 11:33N 47°37' W 125°04'1 0.8
2016-Jun-27 10:15N 47°37' W 125°05'1 0.6
2016-Jun-27 09:19N 47°37' W 125°06'0 0.5
2016-Jun-27 08:33N 47°37' W 125°07'1 0.6
2016-Jun-27 07:30N 47°38' W 125°07'2 2.2
2016-Jun-27 06:34N 47°36' W 125°08'3 2.7
2016-Jun-27 05:33N 47°33' W 125°07'2 2.1
2016-Jun-27 04:33N 47°33' W 125°04'5 4.7
2016-Jun-27 03:33N 47°29' W 124°60'7 7.3
2016-Jun-27 02:33N 47°23' W 124°53'7 7.4
2016-Jun-27 01:33N 47°16' W 124°55'8 7.6
2016-Jun-27 00:33N 47°09' W 125°01'7 6.6
2016-Jun-26 23:34N 47°03' W 124°58'7 6.9
2016-Jun-26 22:33N 46°57' W 125°03'8 8.1
2016-Jun-26 21:33N 46°50' W 124°58'8 7.6
2016-Jun-26 20:33N 46°44' W 124°52'8 7.9
2016-Jun-26 19:33N 46°38' W 124°43'7 6.9
2016-Jun-26 18:33N 46°32' W 124°39'2 2.1
2016-Jun-26 17:33N 46°32' W 124°42'5 4.9
2016-Jun-26 16:34N 46°36' W 124°40'1 1.0
2016-Jun-26 15:33N 46°37' W 124°41'8 7.6
2016-Jun-26 14:33N 46°42' W 124°50'8 7.8
2016-Jun-26 13:33N 46°49' W 124°55'7 6.0
2016-Jun-26 12:28N 46°55' W 124°60'1 1.0
2016-Jun-26 11:32N 46°55' W 125°00'2 1.5
2016-Jun-26 10:25N 46°57' W 125°00'1 1.4
2016-Jun-26 09:30N 46°58' W 125°01'3 2.1
2016-Jun-26 08:11N 47°01' W 124°58'4 6.6
2016-Jun-26 07:32N 47°05' W 124°56'3 3.3
2016-Jun-26 06:33N 47°08' W 124°55'5 4.8
2016-Jun-26 05:24N 47°14' W 124°54'5 5.0
2016-Jun-26 04:26N 47°18' W 124°53'6 4.7
2016-Jun-26 03:14N 47°24' W 124°51'2 1.9
2016-Jun-26 02:20N 47°25' W 124°49'10 3.3
2016-Jun-25 23:25N 47°17' W 124°58'4 4.3
2016-Jun-25 22:33N 47°14' W 124°57'9 8.7
2016-Jun-25 21:33N 47°20' W 124°48'  
2016-Jun-23 01:03N 47°12' W 124°38'4 8.4
2016-Jun-23 00:33N 47°09' W 124°34'9 8.7
2016-Jun-22 23:33N 47°02' W 124°26'5 4.7
2016-Jun-22 22:33N 46°60' W 124°20'5 4.7
2016-Jun-22 21:33N 46°56' W 124°16'5 5.3
2016-Jun-22 20:32N 46°55' W 124°08'1 0.9
2016-Jun-22 19:18N 46°54' W 124°06'0 0.0
2016-Jun-22 18:33N 46°54' W 124°06'0 0.0
2016-Jun-22 17:33N 46°54' W 124°06'0 0.0
2016-Jun-22 16:29N 46°54' W 124°06'0 0.0
2016-Jun-22 15:29N 46°54' W 124°06'0 0.0
2016-Jun-22 13:23N 46°54' W 124°06'0 0.0
2016-Jun-22 12:26N 46°54' W 124°06'0 0.0
2016-Jun-22 11:31N 46°54' W 124°06'0 0.0
2016-Jun-22 10:33N 46°54' W 124°06'0 0.0
2016-Jun-22 09:32N 46°54' W 124°06'0 0.0
2016-Jun-22 08:33N 46°54' W 124°06'0 0.0
2016-Jun-22 07:33N 46°54' W 124°06'0 0.0
2016-Jun-22 06:28N 46°54' W 124°06'0 0.0
2016-Jun-22 05:23N 46°54' W 124°06'0 0.0
2016-Jun-22 04:20N 46°54' W 124°06'0 0.0
2016-Jun-22 03:25N 46°54' W 124°06'0 0.0
2016-Jun-22 02:32N 46°54' W 124°06'0 0.0
2016-Jun-22 01:24N 46°54' W 124°06'0 0.0
2016-Jun-22 00:31N 46°54' W 124°06'0 0.0
2016-Jun-21 22:31N 46°54' W 124°06'0 0.0
2016-Jun-21 21:24N 46°54' W 124°06'0 0.0
2016-Jun-21 20:14N 46°54' W 124°06'0 0.0
2016-Jun-21 19:04N 46°54' W 124°06'0 0.0
2016-Jun-21 18:33N 46°54' W 124°06'0 0.0
2016-Jun-21 17:27N 46°54' W 124°06'0 0.0
2016-Jun-21 15:07N 46°54' W 124°06'0 0.0
2016-Jun-21 14:33N 46°54' W 124°06'0 0.0
2016-Jun-21 13:13N 46°54' W 124°06'0 0.0
2016-Jun-21 12:32N 46°54' W 124°06'0 0.0
2016-Jun-21 11:22N 46°54' W 124°06'0 0.0
2016-Jun-21 10:28N 46°54' W 124°06'0 0.0
2016-Jun-21 09:27N 46°54' W 124°06'0 0.0
2016-Jun-21 08:31N 46°54' W 124°06'0 0.0
2016-Jun-21 07:19N 46°54' W 124°06'0 0.0
2016-Jun-21 04:13N 46°54' W 124°06'0 0.0
2016-Jun-21 03:33N 46°54' W 124°06'0 0.0
2016-Jun-21 02:18N 46°54' W 124°06'0 0.0
2016-Jun-21 01:33N 46°54' W 124°06'0 0.0
2016-Jun-21 00:31N 46°54' W 124°06'0 0.0
2016-Jun-20 23:32N 46°54' W 124°06'0 0.0
2016-Jun-20 22:31N 46°54' W 124°06'0 0.0
2016-Jun-20 21:33N 46°54' W 124°06'0 0.0
2016-Jun-20 20:31N 46°54' W 124°06'0 0.0
2016-Jun-20 19:33N 46°54' W 124°06'0 0.0
2016-Jun-20 17:31N 46°54' W 124°06'0 0.0
2016-Jun-20 16:17N 46°54' W 124°06'0 0.0
2016-Jun-20 15:31N 46°54' W 124°06'0 0.0
2016-Jun-20 14:17N 46°54' W 124°06'0 0.0
2016-Jun-20 13:33N 46°54' W 124°06'0 0.0
2016-Jun-20 12:33N 46°54' W 124°06'0 0.0
2016-Jun-20 11:33N 46°54' W 124°06'0 0.0
2016-Jun-20 10:30N 46°54' W 124°06'0 0.0
2016-Jun-20 09:32N 46°54' W 124°06'0 0.0
2016-Jun-20 08:31N 46°54' W 124°06'0 0.0
2016-Jun-20 07:33N 46°54' W 124°06'0 0.0
2016-Jun-20 06:33N 46°54' W 124°06'0 0.0
2016-Jun-20 05:33N 46°54' W 124°06'0 0.0
2016-Jun-20 04:33N 46°54' W 124°06'0 0.0
2016-Jun-20 03:33N 46°54' W 124°06'0 0.0
2016-Jun-20 02:14N 46°54' W 124°06'0 0.0
2016-Jun-20 01:31N 46°54' W 124°06'0 0.0
2016-Jun-20 00:31N 46°54' W 124°06'  

Dump ship's entire track history